LFMT/MPL METAR and TAF weather

Enter ICAO airport designator
Station Type Date Time Source
LFMT METAR 2022/08/12 14:30 UTC NOAA

LFMT 121430Z AUTO 18008KT 150V210 CAVOK 31/23 Q1010 NOSIG


Station Type Date Time Source
LFMT Decoded METAR 2022/08/12 14:30 UTC NOAA

Montpellier, France (LFMT) 43-35N 003-58E 6M
Aug 12, 2022 - 10:30 AM EDT / 2022.08.12 1430 UTC
Wind: from the S (180 degrees) at 9 MPH (8 KT) (direction variable):0
Visibility: greater than 7 mile(s):0
Temperature: 87 F (31 C)
Heat index: 93.9 F (34.4 C):1
Dew Point: 73 F (23 C)
Relative Humidity: 62%
Pressure (altimeter): 29.83 in. Hg (1010 hPa)
ob: LFMT 121430Z AUTO 18008KT 150V210 CAVOK 31/23 Q1010 NOSIG
cycle: 14

Station Type Date Time Source
LFMT TAF 2022/08/12 15:42 UTC NOAA

TAF LFMT 121400Z 1215/1315 19010KT CAVOK
TEMPO 1215/1218 FEW040CB SCT150
BECMG 1220/1222 03005KT
TEMPO 1302/1308 BKN008
BECMG 1308/1310 19010KT

Example: see airport list